createdAt,value
2023-02-28T00:01:25.546Z,101326.16
2023-02-28T00:03:52.122Z,101322.41
2023-02-28T00:06:18.936Z,101321.25
2023-02-28T00:08:45.487Z,101316.88
2023-02-28T00:11:13.794Z,101324.31
2023-02-28T00:13:43.437Z,101321.00
2023-02-28T00:16:14.089Z,101324.69
2023-02-28T00:18:41.064Z,101316.72
2023-02-28T00:21:08.266Z,101318.00
2023-02-28T00:23:35.492Z,101316.84
2023-02-28T00:26:02.221Z,101312.56
2023-02-28T00:28:28.924Z,101308.91
2023-02-28T00:30:55.895Z,101313.47
2023-02-28T00:33:22.958Z,101309.59
2023-02-28T00:35:50.674Z,101309.25
2023-02-28T00:38:17.583Z,101310.91
2023-02-28T00:40:44.595Z,101310.59
2023-02-28T00:43:11.178Z,101309.16
2023-02-28T00:45:37.771Z,101308.34
2023-02-28T00:48:05.221Z,101311.56
2023-02-28T00:50:32.053Z,101304.81
2023-02-28T00:52:58.532Z,101313.88
2023-02-28T00:55:25.026Z,101316.75
2023-02-28T00:57:51.788Z,101304.66
2023-02-28T01:00:19.506Z,101305.88
2023-02-28T01:02:46.283Z,101304.31
2023-02-28T01:05:12.919Z,101304.66
2023-02-28T01:07:39.521Z,101314.03
2023-02-28T01:10:06.456Z,101311.88
2023-02-28T01:12:32.922Z,101314.84
2023-02-28T01:14:59.428Z,101317.75
2023-02-28T01:17:27.375Z,101311.44
2023-02-28T01:19:56.336Z,101311.38
2023-02-28T01:22:22.973Z,101304.28
2023-02-28T01:24:49.459Z,101311.06
2023-02-28T01:27:15.930Z,101306.06
2023-02-28T01:29:42.431Z,101309.88
2023-02-28T01:32:09.394Z,101301.50
2023-02-28T01:34:35.881Z,101305.56
2023-02-28T01:37:02.659Z,101307.22
2023-02-28T01:39:29.623Z,101301.47
2023-02-28T01:41:56.293Z,101306.84
2023-02-28T01:44:56.838Z,101305.06
2023-02-28T01:47:24.439Z,101305.47
2023-02-28T01:49:52.565Z,101300.00
2023-02-28T01:52:20.053Z,101307.03
2023-02-28T01:54:50.982Z,101298.00
2023-02-28T01:57:21.204Z,101299.31
2023-02-28T02:00:01.230Z,101299.22
2023-02-28T02:02:28.692Z,101302.19
2023-02-28T02:04:59.879Z,101292.97
2023-02-28T02:07:27.194Z,101296.06
2023-02-28T02:10:28.293Z,101293.69
2023-02-28T02:13:32.029Z,101290.59
2023-02-28T02:16:21.843Z,101286.09
2023-02-28T02:18:54.012Z,101289.06
2023-02-28T02:22:01.574Z,101290.59
2023-02-28T02:24:48.472Z,101288.31
2023-02-28T02:27:33.449Z,101288.22
2023-02-28T02:30:33.866Z,101285.97
2023-02-28T02:33:24.245Z,101283.59
2023-02-28T02:35:59.912Z,101287.41
2023-02-28T02:38:40.388Z,101281.59
2023-02-28T02:41:15.557Z,101270.16
2023-02-28T02:43:52.563Z,101283.84
2023-02-28T02:46:29.732Z,101279.44
2023-02-28T02:48:57.811Z,101287.53
2023-02-28T02:51:25.686Z,101285.19
2023-02-28T02:53:56.764Z,101292.56
2023-02-28T02:56:27.028Z,101282.94
2023-02-28T02:58:58.258Z,101291.47
2023-02-28T03:01:29.646Z,101289.22
2023-02-28T03:04:02.879Z,101296.25
2023-02-28T03:06:29.770Z,101295.41
2023-02-28T03:08:56.264Z,101295.19
2023-02-28T03:11:22.960Z,101294.13
2023-02-28T03:14:15.061Z,101297.34
2023-02-28T03:16:50.961Z,101291.63
2023-02-28T03:19:39.825Z,101294.84
2023-02-28T03:22:19.137Z,101295.69
2023-02-28T03:25:04.532Z,101295.56
2023-02-28T03:27:56.460Z,101288.78
2023-02-28T03:30:27.433Z,101297.34
2023-02-28T03:32:58.600Z,101289.63
2023-02-28T03:35:27.577Z,101294.50
2023-02-28T03:38:03.676Z,101294.25
2023-02-28T03:40:34.204Z,101293.50
2023-02-28T03:43:05.301Z,101296.69
2023-02-28T03:45:35.097Z,101296.22
2023-02-28T03:48:06.082Z,101286.94
2023-02-28T03:50:39.114Z,101293.09
2023-02-28T03:53:13.381Z,101300.16
2023-02-28T03:55:44.544Z,101297.44
2023-02-28T03:58:26.301Z,101296.94
2023-02-28T04:01:00.743Z,101289.69
2023-02-28T04:03:27.310Z,101302.34
2023-02-28T04:05:55.622Z,101306.38
2023-02-28T04:08:23.284Z,101310.03
2023-02-28T04:10:56.342Z,101313.91
2023-02-28T04:13:23.446Z,101313.13
2023-02-28T04:15:50.109Z,101313.59
2023-02-28T04:18:16.665Z,101316.91
2023-02-28T04:20:43.199Z,101319.03
2023-02-28T04:23:09.757Z,101322.28
2023-02-28T04:25:36.269Z,101322.75
2023-02-28T04:28:02.716Z,101321.31
2023-02-28T04:30:30.643Z,101323.44
2023-02-28T04:32:57.713Z,101332.31
2023-02-28T04:35:24.305Z,101330.09
2023-02-28T04:37:50.868Z,101334.34
2023-02-28T04:40:17.468Z,101329.19
2023-02-28T04:42:43.938Z,101332.06
2023-02-28T04:45:11.299Z,101336.09
2023-02-28T04:47:38.318Z,101337.22
2023-02-28T04:50:05.851Z,101324.13
2023-02-28T04:52:32.367Z,101331.28
2023-02-28T04:54:58.939Z,101337.56
2023-02-28T04:57:25.494Z,101338.47
2023-02-28T04:59:52.011Z,101332.34
2023-02-28T05:02:18.683Z,101330.53
2023-02-28T05:04:45.183Z,101328.56
2023-02-28T05:07:11.683Z,101329.16
2023-02-28T05:09:38.262Z,101333.22
2023-02-28T05:12:04.786Z,101332.16
2023-02-28T05:14:31.742Z,101339.13
2023-02-28T05:16:58.225Z,101323.63
2023-02-28T05:19:24.643Z,101341.63
2023-02-28T05:21:53.310Z,101344.13
2023-02-28T05:24:25.772Z,101345.47
2023-02-28T05:26:53.958Z,101344.56
2023-02-28T05:29:20.912Z,101348.19
2023-02-28T05:31:47.766Z,101342.81
2023-02-28T05:34:16.552Z,101343.22
2023-02-28T05:36:43.342Z,101349.50
2023-02-28T05:39:13.465Z,101347.00
2023-02-28T05:41:43.560Z,101350.59
2023-02-28T05:44:10.877Z,101352.66
2023-02-28T05:46:38.174Z,101344.72
2023-02-28T05:49:05.975Z,101352.00
2023-02-28T05:51:32.801Z,101350.13
2023-02-28T05:54:01.362Z,101351.16
2023-02-28T05:56:28.527Z,101358.47
2023-02-28T05:58:56.241Z,101355.69
2023-02-28T06:01:25.902Z,101355.44
2023-02-28T06:03:53.000Z,101352.88
2023-02-28T06:06:19.895Z,101358.94
2023-02-28T06:08:46.750Z,101364.59
2023-02-28T06:11:13.559Z,101366.50
2023-02-28T06:13:40.045Z,101370.88
2023-02-28T06:16:06.721Z,101370.81
2023-02-28T06:18:33.234Z,101373.31
2023-02-28T06:20:59.746Z,101375.59
2023-02-28T06:23:26.312Z,101376.59
2023-02-28T06:25:54.053Z,101369.75
2023-02-28T06:28:20.540Z,101383.53
2023-02-28T06:30:47.003Z,101381.84
2023-02-28T06:33:13.562Z,101385.78
2023-02-28T06:35:40.118Z,101391.78
2023-02-28T06:38:06.976Z,101389.03
2023-02-28T06:40:36.042Z,101397.81
2023-02-28T06:43:03.100Z,101405.16
2023-02-28T06:45:29.957Z,101402.16
2023-02-28T06:47:56.499Z,101400.66
2023-02-28T06:50:22.983Z,101400.94
2023-02-28T06:52:49.604Z,101417.13
2023-02-28T06:55:16.124Z,101418.34
2023-02-28T06:57:42.777Z,101419.84
2023-02-28T07:00:10.148Z,101418.38
2023-02-28T07:02:38.600Z,101422.34
2023-02-28T07:05:06.779Z,101422.53
2023-02-28T07:07:33.485Z,101425.91
2023-02-28T07:10:00.303Z,101427.28
2023-02-28T07:12:26.927Z,101425.84
2023-02-28T07:14:53.539Z,101426.91
2023-02-28T07:17:20.150Z,101428.56
2023-02-28T07:19:46.683Z,101424.81
2023-02-28T07:22:15.570Z,101413.38
2023-02-28T07:24:42.364Z,101411.94
2023-02-28T07:27:08.814Z,101416.75
2023-02-28T07:29:35.304Z,101414.63
2023-02-28T07:32:01.873Z,101416.78
2023-02-28T07:34:28.390Z,101423.03
2023-02-28T07:36:55.145Z,101417.50
2023-02-28T07:39:22.737Z,101416.81
2023-02-28T07:41:49.302Z,101422.41
2023-02-28T07:44:16.136Z,101420.38
2023-02-28T07:46:42.667Z,101419.34
2023-02-28T07:49:09.196Z,101418.88
2023-02-28T07:51:35.660Z,101417.50
2023-02-28T07:54:02.267Z,101419.06
2023-02-28T07:56:29.171Z,101426.41
2023-02-28T07:58:55.973Z,101426.44
2023-02-28T08:01:22.825Z,101432.06
2023-02-28T08:03:49.344Z,101433.81
2023-02-28T08:06:18.768Z,101434.59
2023-02-28T08:08:45.448Z,101429.28
2023-02-28T08:11:11.976Z,101423.88
2023-02-28T08:13:38.489Z,101431.19
2023-02-28T08:16:05.167Z,101428.72
2023-02-28T08:18:33.307Z,101430.66
2023-02-28T08:21:00.252Z,101425.81
2023-02-28T08:23:26.895Z,101424.72
2023-02-28T08:25:57.227Z,101425.53
2023-02-28T08:28:26.994Z,101423.88
2023-02-28T08:30:54.704Z,101433.13
2023-02-28T08:33:21.608Z,101435.09
2023-02-28T08:35:48.670Z,101431.22
2023-02-28T08:38:15.350Z,101433.22
2023-02-28T08:40:41.870Z,101427.13
2023-02-28T08:43:08.309Z,101427.72
2023-02-28T08:45:34.769Z,101432.38
2023-02-28T08:48:01.337Z,101438.75
2023-02-28T08:50:27.960Z,101433.69
2023-02-28T08:52:55.015Z,101437.09
2023-02-28T08:55:21.518Z,101437.63
2023-02-28T08:57:48.062Z,101436.41
2023-02-28T09:00:16.293Z,101441.66
2023-02-28T09:02:44.626Z,101436.84
2023-02-28T09:05:11.442Z,101429.38
2023-02-28T09:07:38.523Z,101445.91
2023-02-28T09:10:05.353Z,101433.72
2023-02-28T09:12:35.389Z,101434.75
2023-02-28T09:15:02.373Z,101438.47
2023-02-28T09:17:30.655Z,101429.38
2023-02-28T09:19:58.364Z,101430.13
2023-02-28T09:22:25.155Z,101425.41
2023-02-28T09:24:51.608Z,101422.53
2023-02-28T09:27:18.288Z,101416.88
2023-02-28T09:29:44.843Z,101426.34
2023-02-28T09:32:11.441Z,101421.69
2023-02-28T09:34:38.528Z,101427.50
2023-02-28T09:37:05.463Z,101419.22
2023-02-28T09:39:32.728Z,101420.03
2023-02-28T09:41:59.758Z,101422.66
2023-02-28T09:44:30.237Z,101420.19
2023-02-28T09:47:11.509Z,101412.44
2023-02-28T09:49:44.592Z,101419.19
2023-02-28T09:52:15.146Z,101423.59
2023-02-28T09:54:42.357Z,101427.38
2023-02-28T09:57:16.560Z,101420.63
2023-02-28T10:00:01.684Z,101422.97
2023-02-28T10:03:13.263Z,101422.84
2023-02-28T10:05:44.374Z,101420.38
2023-02-28T10:08:35.106Z,101420.00
2023-02-28T10:11:05.350Z,101431.84
2023-02-28T10:13:40.676Z,101425.00
2023-02-28T10:16:12.806Z,101412.84
2023-02-28T10:19:02.255Z,101426.25
2023-02-28T10:21:39.244Z,101428.31
2023-02-28T10:24:31.934Z,101421.13
2023-02-28T10:27:07.751Z,101412.88
2023-02-28T10:29:34.390Z,101430.13
2023-02-28T10:32:03.112Z,101422.56
2023-02-28T10:34:29.596Z,101424.94
2023-02-28T10:36:56.836Z,101408.81
2023-02-28T10:39:38.584Z,101407.56
2023-02-28T10:42:05.548Z,101413.81
2023-02-28T10:44:32.218Z,101417.38
2023-02-28T10:46:58.846Z,101417.50
2023-02-28T10:49:31.657Z,101416.97
2023-02-28T10:52:01.766Z,101411.09
2023-02-28T10:54:36.415Z,101420.47
2023-02-28T10:57:25.365Z,101424.06
2023-02-28T10:59:53.555Z,101418.25
2023-02-28T11:02:39.103Z,101415.72
2023-02-28T11:05:31.623Z,101414.66
2023-02-28T11:08:22.143Z,101418.84
2023-02-28T11:10:55.738Z,101414.56
2023-02-28T11:13:27.264Z,101406.28
2023-02-28T11:15:56.873Z,101398.75
2023-02-28T11:18:27.795Z,101386.97
2023-02-28T11:20:56.622Z,101402.59
2023-02-28T11:23:26.866Z,101382.22
2023-02-28T11:25:54.805Z,101389.66
2023-02-28T11:28:35.637Z,101391.06
2023-02-28T11:31:06.841Z,101386.47
2023-02-28T11:33:41.502Z,101383.44
2023-02-28T11:36:15.092Z,101377.53
2023-02-28T11:38:41.901Z,101376.97
2023-02-28T11:41:32.239Z,101366.94
2023-02-28T11:44:15.199Z,101374.59
2023-02-28T11:46:54.743Z,101365.47
2023-02-28T11:49:40.121Z,101366.41
2023-02-28T11:52:22.293Z,101363.88
2023-02-28T11:54:51.772Z,101359.41
2023-02-28T11:57:46.323Z,101357.75
2023-02-28T12:00:38.611Z,101364.50
2023-02-28T12:03:27.221Z,101377.47
2023-02-28T12:05:53.780Z,101374.13
2023-02-28T12:08:28.311Z,101368.53
2023-02-28T12:11:18.082Z,101354.72
2023-02-28T12:14:02.697Z,101361.03
2023-02-28T12:16:51.138Z,101352.97
2023-02-28T12:19:49.600Z,101361.97
2023-02-28T12:22:31.471Z,101363.63
2023-02-28T12:25:07.116Z,101351.28
2023-02-28T12:27:36.564Z,101346.75
2023-02-28T12:30:08.186Z,101356.19
2023-02-28T12:32:38.892Z,101357.72
2023-02-28T12:35:13.102Z,101368.16
2023-02-28T12:37:56.010Z,101357.97
2023-02-28T12:40:24.744Z,101357.97
2023-02-28T12:42:55.087Z,101344.00
2023-02-28T12:45:39.397Z,101351.06
2023-02-28T12:48:11.206Z,101363.16
2023-02-28T12:50:38.136Z,101358.63
2023-02-28T12:53:09.618Z,101359.78
2023-02-28T12:55:54.701Z,101347.34
2023-02-28T12:58:28.956Z,101352.09
2023-02-28T13:01:14.496Z,101344.59
2023-02-28T13:04:18.553Z,101345.56
2023-02-28T13:07:08.792Z,101333.56
2023-02-28T13:09:35.586Z,101333.00
2023-02-28T13:12:02.037Z,101342.47
2023-02-28T13:14:38.787Z,101341.59
2023-02-28T13:17:09.883Z,101338.38
2023-02-28T13:19:43.088Z,101334.41
2023-02-28T13:22:35.933Z,101339.66
2023-02-28T13:25:02.580Z,101346.84
2023-02-28T13:27:40.093Z,101346.72
2023-02-28T13:30:44.582Z,101336.13
2023-02-28T13:33:35.295Z,101329.84
2023-02-28T13:36:14.525Z,101339.00
2023-02-28T13:39:02.762Z,101329.34
2023-02-28T13:41:32.541Z,101322.28
2023-02-28T13:44:04.169Z,101315.84
2023-02-28T13:46:31.677Z,101315.56
2023-02-28T13:49:24.308Z,101324.78
2023-02-28T13:51:52.346Z,101315.16
2023-02-28T13:54:36.774Z,101311.53
2023-02-28T13:57:28.389Z,101311.13
2023-02-28T14:00:25.335Z,101312.25
2023-02-28T14:03:10.454Z,101308.66
2023-02-28T14:05:37.398Z,101305.81
2023-02-28T14:08:16.276Z,101300.69
2023-02-28T14:10:48.108Z,101296.78
2023-02-28T14:13:45.862Z,101293.72
2023-02-28T14:16:19.025Z,101301.88
2023-02-28T14:19:00.261Z,101292.06
2023-02-28T14:21:36.605Z,101292.44
2023-02-28T14:24:54.373Z,101297.75
2023-02-28T14:27:49.692Z,101288.88
2023-02-28T14:30:39.219Z,101293.22
2023-02-28T14:33:24.543Z,101285.31
2023-02-28T14:36:11.759Z,101279.66
2023-02-28T14:38:44.093Z,101271.59
2023-02-28T14:41:18.027Z,101275.59
2023-02-28T14:43:53.719Z,101281.88
2023-02-28T14:46:21.008Z,101279.31
2023-02-28T14:48:49.281Z,101276.72
2023-02-28T14:51:22.209Z,101282.16
2023-02-28T14:53:51.809Z,101279.94
2023-02-28T14:56:38.348Z,101281.50
2023-02-28T14:59:06.382Z,101282.91
2023-02-28T15:01:34.540Z,101276.78
2023-02-28T15:04:05.742Z,101279.28
2023-02-28T15:06:33.008Z,101282.81
2023-02-28T15:09:15.043Z,101284.81
2023-02-28T15:11:42.267Z,101285.00
2023-02-28T15:14:16.319Z,101289.13
2023-02-28T15:16:44.417Z,101301.34
2023-02-28T15:19:30.662Z,101294.50
2023-02-28T15:22:05.795Z,101295.00
2023-02-28T15:24:45.039Z,101287.56
2023-02-28T15:27:39.519Z,101296.16
2023-02-28T15:30:09.473Z,101288.88
2023-02-28T15:32:39.684Z,101288.66
2023-02-28T15:35:23.642Z,101291.06
2023-02-28T15:37:52.858Z,101279.44
2023-02-28T15:40:31.139Z,101279.88
2023-02-28T15:43:06.139Z,101285.28
2023-02-28T15:45:41.844Z,101289.22
2023-02-28T15:48:38.795Z,101284.81
2023-02-28T15:51:15.756Z,101297.84
2023-02-28T15:53:48.822Z,101292.34
2023-02-28T15:56:25.866Z,101293.16
2023-02-28T15:59:00.869Z,101298.41
2023-02-28T16:01:33.757Z,101292.91
2023-02-28T16:04:05.950Z,101286.00
2023-02-28T16:06:35.315Z,101283.78
2023-02-28T16:09:02.463Z,101287.66
2023-02-28T16:11:29.507Z,101284.03
2023-02-28T16:13:56.242Z,101277.97
2023-02-28T16:16:25.293Z,101282.63
2023-02-28T16:18:51.847Z,101283.72
2023-02-28T16:21:18.587Z,101284.00
2023-02-28T16:23:45.145Z,101289.47
2023-02-28T16:26:20.369Z,101292.53
2023-02-28T16:28:47.180Z,101288.66
2023-02-28T16:31:17.517Z,101290.59
2023-02-28T16:33:45.740Z,101281.97
2023-02-28T16:36:18.012Z,101289.38
2023-02-28T16:38:44.776Z,101286.03
2023-02-28T16:41:17.596Z,101282.41
2023-02-28T16:43:44.706Z,101285.41
2023-02-28T16:46:13.528Z,101289.16
2023-02-28T16:48:41.584Z,101292.22
2023-02-28T16:51:16.010Z,101284.47
2023-02-28T16:53:43.379Z,101287.16
2023-02-28T16:56:19.458Z,101295.63
2023-02-28T16:58:46.439Z,101288.19
2023-02-28T17:01:13.264Z,101292.53
2023-02-28T17:03:41.280Z,101295.19
2023-02-28T17:06:18.182Z,101289.53
2023-02-28T17:08:44.623Z,101291.16
2023-02-28T17:11:11.138Z,101298.47
2023-02-28T17:13:37.678Z,101293.97
2023-02-28T17:16:04.642Z,101295.56
2023-02-28T17:18:34.740Z,101299.56
2023-02-28T17:21:02.040Z,101304.13
2023-02-28T17:23:28.470Z,101302.41
2023-02-28T17:25:57.793Z,101303.78
2023-02-28T17:28:24.933Z,101306.94
2023-02-28T17:30:51.775Z,101306.56
2023-02-28T17:33:18.810Z,101299.06
2023-02-28T17:35:45.514Z,101303.09
2023-02-28T17:38:18.177Z,101306.84
2023-02-28T17:40:45.199Z,101301.88
2023-02-28T17:43:12.810Z,101304.38
2023-02-28T17:45:39.626Z,101306.53
2023-02-28T17:48:07.114Z,101308.13
2023-02-28T17:50:34.117Z,101307.72
2023-02-28T17:53:00.767Z,101303.50
2023-02-28T17:55:27.443Z,101300.13
2023-02-28T17:57:54.015Z,101306.69
2023-02-28T18:00:20.949Z,101293.41
2023-02-28T18:02:47.739Z,101290.94
2023-02-28T18:05:14.285Z,101287.81
2023-02-28T18:07:40.955Z,101286.66
2023-02-28T18:10:22.485Z,101293.47
2023-02-28T18:12:51.137Z,101296.34
2023-02-28T18:15:20.971Z,101297.44
2023-02-28T18:17:48.674Z,101289.97
2023-02-28T18:20:15.331Z,101295.88
2023-02-28T18:22:42.849Z,101293.31
2023-02-28T18:25:14.592Z,101292.72
2023-02-28T18:27:53.868Z,101296.97
2023-02-28T18:30:21.871Z,101291.81
2023-02-28T18:32:48.550Z,101289.34
2023-02-28T18:35:15.091Z,101297.47
2023-02-28T18:37:41.675Z,101294.06
2023-02-28T18:40:09.035Z,101294.56
2023-02-28T18:42:35.661Z,101294.69
2023-02-28T18:45:02.162Z,101295.28
2023-02-28T18:47:28.716Z,101300.50
2023-02-28T18:49:55.212Z,101294.47
2023-02-28T18:52:21.921Z,101296.28
2023-02-28T18:54:48.390Z,101298.09
2023-02-28T18:57:15.249Z,101300.75
2023-02-28T18:59:42.002Z,101289.38
2023-02-28T19:02:09.167Z,101294.53
2023-02-28T19:04:35.640Z,101295.41
2023-02-28T19:07:02.985Z,101297.94
2023-02-28T19:09:29.482Z,101292.94
2023-02-28T19:11:56.109Z,101292.63
2023-02-28T19:14:22.745Z,101299.50
2023-02-28T19:16:50.760Z,101299.50
2023-02-28T19:19:17.377Z,101295.00
2023-02-28T19:21:44.056Z,101299.66
2023-02-28T19:24:10.575Z,101294.81
2023-02-28T19:26:37.680Z,101298.03
2023-02-28T19:29:05.072Z,101299.75
2023-02-28T19:31:31.923Z,101298.19
2023-02-28T19:33:59.172Z,101301.91
2023-02-28T19:36:26.036Z,101299.66
2023-02-28T19:38:53.211Z,101301.19
2023-02-28T19:41:20.271Z,101293.47
2023-02-28T19:43:46.952Z,101305.72
2023-02-28T19:46:13.585Z,101301.69
2023-02-28T19:48:42.353Z,101308.94
2023-02-28T19:51:11.622Z,101295.03
2023-02-28T19:53:39.859Z,101312.03
2023-02-28T19:56:07.031Z,101310.38
2023-02-28T19:58:34.037Z,101312.38
2023-02-28T20:01:11.631Z,101309.78
2023-02-28T20:03:38.155Z,101309.66
2023-02-28T20:06:11.361Z,101321.19
2023-02-28T20:08:38.557Z,101313.34
2023-02-28T20:11:07.517Z,101314.66
2023-02-28T20:13:34.738Z,101313.69
2023-02-28T20:16:02.638Z,101311.75
2023-02-28T20:18:29.444Z,101309.94
2023-02-28T20:20:56.277Z,101314.50
2023-02-28T20:23:22.809Z,101313.06
2023-02-28T20:25:51.386Z,101318.19
2023-02-28T20:28:19.343Z,101304.88
2023-02-28T20:30:48.855Z,101321.38
2023-02-28T20:33:17.460Z,101305.69
2023-02-28T20:35:44.635Z,101316.75
2023-02-28T20:38:11.684Z,101318.28
2023-02-28T20:40:38.804Z,101318.66
2023-02-28T20:43:05.458Z,101325.09
2023-02-28T20:45:31.997Z,101325.22
2023-02-28T20:47:58.565Z,101325.72
2023-02-28T20:50:25.041Z,101334.38
2023-02-28T20:52:51.818Z,101327.28
2023-02-28T20:55:18.530Z,101323.31
2023-02-28T20:57:45.521Z,101329.50
2023-02-28T21:00:16.290Z,101326.78
2023-02-28T21:02:42.791Z,101331.88
2023-02-28T21:05:09.715Z,101337.22
2023-02-28T21:07:36.363Z,101327.59
2023-02-28T21:10:02.974Z,101329.63
2023-02-28T21:12:29.505Z,101328.91
2023-02-28T21:14:56.072Z,101326.41
2023-02-28T21:17:22.642Z,101330.09
2023-02-28T21:19:49.112Z,101318.59
2023-02-28T21:22:15.854Z,101316.66
2023-02-28T21:24:42.388Z,101316.53
2023-02-28T21:27:08.792Z,101311.06
2023-02-28T21:29:35.276Z,101316.06
2023-02-28T21:32:02.352Z,101318.66
2023-02-28T21:34:28.827Z,101315.19
2023-02-28T21:36:55.405Z,101322.06
2023-02-28T21:39:25.921Z,101321.13
2023-02-28T21:41:53.441Z,101325.84
2023-02-28T21:44:21.373Z,101316.00
2023-02-28T21:46:49.928Z,101318.84
2023-02-28T21:49:16.603Z,101321.22
2023-02-28T21:51:43.400Z,101322.41
2023-02-28T21:54:10.958Z,101327.50
2023-02-28T21:56:37.947Z,101321.03
2023-02-28T21:59:06.952Z,101324.41
2023-02-28T22:01:36.016Z,101330.16
2023-02-28T22:04:04.725Z,101328.34
2023-02-28T22:06:34.342Z,101317.69
2023-02-28T22:09:04.681Z,101315.88
2023-02-28T22:11:32.265Z,101316.34
2023-02-28T22:13:59.166Z,101317.88
2023-02-28T22:16:29.531Z,101322.03
2023-02-28T22:18:58.096Z,101317.50
2023-02-28T22:21:25.067Z,101323.41
2023-02-28T22:23:51.688Z,101320.53
2023-02-28T22:26:21.159Z,101327.91
2023-02-28T22:28:47.926Z,101337.50
2023-02-28T22:31:23.344Z,101328.34
2023-02-28T22:33:51.112Z,101323.97
2023-02-28T22:36:18.717Z,101325.69
2023-02-28T22:38:46.417Z,101321.06
2023-02-28T22:41:13.073Z,101327.06
2023-02-28T22:43:40.612Z,101327.75
2023-02-28T22:46:08.964Z,101322.72
2023-02-28T22:48:36.536Z,101320.91
2023-02-28T22:51:05.089Z,101319.94
2023-02-28T22:53:35.863Z,101326.59
2023-02-28T22:56:02.561Z,101319.88
2023-02-28T22:58:29.964Z,101324.09
2023-02-28T23:00:56.617Z,101318.50
2023-02-28T23:03:24.788Z,101325.63
2023-02-28T23:05:52.583Z,101331.22
2023-02-28T23:08:23.279Z,101329.47
2023-02-28T23:10:50.923Z,101333.13
2023-02-28T23:13:18.745Z,101336.16
2023-02-28T23:15:46.201Z,101340.31
2023-02-28T23:18:13.810Z,101333.44
2023-02-28T23:20:40.271Z,101339.53
2023-02-28T23:23:07.072Z,101338.34
2023-02-28T23:25:33.545Z,101336.66
2023-02-28T23:28:00.093Z,101343.41
2023-02-28T23:30:27.205Z,101348.63
2023-02-28T23:32:53.879Z,101346.59
2023-02-28T23:35:20.478Z,101340.53
2023-02-28T23:37:46.971Z,101351.88
2023-02-28T23:40:14.088Z,101349.03
2023-02-28T23:42:40.670Z,101354.09
2023-02-28T23:45:07.791Z,101357.50
2023-02-28T23:47:34.365Z,101351.13
2023-02-28T23:50:00.893Z,101349.31
2023-02-28T23:52:27.389Z,101361.06
2023-02-28T23:54:53.967Z,101361.28
2023-02-28T23:57:20.452Z,101345.16
2023-02-28T23:59:47.080Z,101337.22
